Monday, July 23, 2018, 11:45 AM GMT
Back to Local

CYSJ, Saint John, N. B.

Location: , , Canada Lat: 45.333
Local Time: 11:45 AM GMT (11:45 GMT) Lon: -65.883
Time Zone: GMT Elev: 337 ft

Show me the last for .
Show Coded

Time T Td Feel RH Dir Speed Gust Alt SLP Vis Weather Sky Remarks
2018-07-23 11:00 66 66 - 100 190° 9 - 30.34 30.35 0 FG VV002 None
2018-07-23 10:00 66 66 - 100 220° 8 - 30.34 30.34 0 FG VV001 None
2018-07-23 09:00 66 66 - 100 220° 10 - 30.33 30.33 0 FG VV001 None
2018-07-23 08:41 66 66 - 100 210° 10 - 30.33 30.33 0 FG VV001 None
2018-07-23 08:34 66 66 - 100 200° 9 - 30.33 30.33 0 BR VV001 None
2018-07-23 08:13 66 66 - 100 220° 7 - 30.32 30.33 1 -SHRA BR VV004 None
2018-07-23 08:05 66 66 - 100 220° 8 - 30.32 30.32 0 -SHRA BR VV002 None
2018-07-23 08:00 66 66 - 100 210° 9 - 30.32 30.32 0 FG VV001 None
2018-07-23 07:54 66 66 - 100 200° 10 - 30.32 30.32 0 FG VV001 None
2018-07-23 07:00 68 68 - 100 200° 9 - 30.31 30.32 1 BR VV003 None
2018-07-23 06:00 68 68 - 100 190° 10 - 30.31 30.31 1 BR VV003 None
2018-07-23 05:00 68 68 - 100 190° 5 - 30.31 30.32 1 BR VV002 None
2018-07-23 04:36 68 68 - 100 170° 5 - 30.32 30.32 1 BR OVC002 None
2018-07-23 04:00 66 66 - 100 200° 5 - 30.32 30.33 1 BR OVC002 None
2018-07-23 03:52 68 68 - 100 200° 6 - 30.32 30.33 1 BR OVC001 None
2018-07-23 03:00 68 68 - 100 200° 8 - 30.32 30.33 0 -DZ BR OVC002 None
2018-07-23 02:48 68 68 - 100 200° 7 - 30.32 30.33 1 -DZ BR OVC002 None
2018-07-23 02:26 66 66 - 100 180° 5 - 30.33 30.33 0 -DZ BR VV001 None
2018-07-23 02:18 66 66 - 100 180° 6 - 30.33 30.33 0 -DZ BR VV002 None
2018-07-23 02:00 66 66 - 100 190° 6 - 30.33 30.33 0 -DZ FG VV001 None
2018-07-23 01:33 66 66 - 100 170° 5 - 30.33 30.33 0 -DZ FG VV001 None
2018-07-23 01:00 66 66 - 100 200° 8 - 30.32 30.33 0 FG VV001 None
2018-07-23 00:25 66 66 - 100 200° 10 - 30.31 30.32 0 FG VV001 None
2018-07-23 00:00 68 66 - 93 200° 9 - 30.30 30.31 0 FG VV002 None
2018-07-22 23:41 68 66 - 93 190° 8 - 30.30 30.31 0 FG VV002 None
2018-07-22 23:21 68 66 - 93 190° 8 - 30.30 30.31 0 FG VV002 None
2018-07-22 23:00 68 68 - 100 190° 9 - 30.30 30.30 1 BR VV003 None
2018-07-22 22:14 70 68 - 94 190° 8 - 30.29 30.30 1 BR OVC003 None
2018-07-22 22:00 70 68 - 94 200° 8 - 30.29 30.29 3 BR OVC004 None
2018-07-22 21:57 72 68 76 88 200° 7 - 30.28 30.29 4 BR OVC005 None
2018-07-22 21:00 73 70 77 88 190° 10 - 30.27 30.28 10 OVC008 None
2018-07-22 20:00 75 70 79 83 200° 13 - 30.27 30.28 15 BKN008 None
2018-07-22 19:00 70 66 - 88 170° 9 - 30.27 30.28 10 OVC005 None
2018-07-22 18:00 70 68 - 94 180° 9 - 30.26 30.27 10 OVC006 None
2018-07-22 17:00 72 68 76 88 160° 8 - 30.26 30.27 10 OVC008 None
2018-07-22 16:00 70 66 - 88 140° 9 - 30.26 30.27 10 FEW002 OVC009 None
2018-07-22 15:00 68 64 - 88 140° 8 - 30.27 30.27 10 FEW002 BKN010 None
2018-07-22 14:00 68 61 - 77 120° 8 - 30.27 30.27 15 FEW002 BKN013 None
2018-07-22 13:00 73 57 77 56 130° 7 - 30.25 30.25 15 FEW002 BKN023 None
2018-07-22 12:00 66 61 - 82 120° 3 - 30.25 30.25 15 FEW002 BKN024 None

Support USWX by starting your Amazon purchase here.